Time;durP1;ratioP1;P1;durP2;ratioP2;P2;SDS_P1;SDS_P2;PMS_P1;PMS_P2;Temp;Humidity;BMP_temperature;BMP_pressure;BME280_temperature;BME280_humidity;BME280_pressure;Samples;Min_cycle;Max_cycle;Signal;HPM_P1;HPM_P2
2023/10/31 00:00:04;;;;;;;4.93;2.03;;;;;;;;;;4904114;29;20043;-75
2023/10/31 00:02:30;;;;;;;4.32;1.67;;;;;;;;;;4904880;29;20048;-75
2023/10/31 00:04:56;;;;;;;4.10;1.60;;;;;;;;;;4921326;29;20496;-76
2023/10/31 00:07:22;;;;;;;6.57;1.77;;;;;;;;;;4905513;29;20050;-75
2023/10/31 00:09:48;;;;;;;6.05;2.15;;;;;;;;;;4921564;29;20086;-75
2023/10/31 00:12:14;;;;;;;4.82;1.92;;;;;;;;;;4905635;29;20464;-72
2023/10/31 00:14:40;;;;;;;7.05;1.73;;;;;;;;;;4921043;29;20055;-72
2023/10/31 00:17:06;;;;;;;4.32;1.58;;;;;;;;;;4921393;29;20066;-73
2023/10/31 00:19:32;;;;;;;4.03;1.67;;;;;;;;;;4921316;29;20040;-72
2023/10/31 00:21:58;;;;;;;5.22;2.00;;;;;;;;;;4920995;29;20050;-73
2023/10/31 00:24:25;;;;;;;4.07;1.70;;;;;;;;;;4920540;29;20048;-73
2023/10/31 00:26:51;;;;;;;2.42;1.38;;;;;;;;;;4905204;29;20067;-72
2023/10/31 00:29:18;;;;;;;6.75;1.50;;;;;;;;;;4921080;29;20047;-72
2023/10/31 00:31:44;;;;;;;3.80;1.70;;;;;;;;;;4920736;29;20046;-72
2023/10/31 00:34:10;;;;;;;3.72;1.45;;;;;;;;;;4920629;29;20099;-72
2023/10/31 00:36:36;;;;;;;9.15;2.67;;;;;;;;;;4920672;29;20048;-72
2023/10/31 00:39:02;;;;;;;3.45;1.35;;;;;;;;;;4920971;29;20469;-72
2023/10/31 00:41:28;;;;;;;2.53;1.60;;;;;;;;;;4920567;29;20441;-72
2023/10/31 00:43:54;;;;;;;5.45;1.85;;;;;;;;;;4920557;29;20042;-72
2023/10/31 00:46:20;;;;;;;4.68;1.90;;;;;;;;;;4902098;29;20040;-73
2023/10/31 00:48:46;;;;;;;7.00;2.60;;;;;;;;;;4914196;29;20418;-73
2023/10/31 00:51:13;;;;;;;5.32;2.40;;;;;;;;;;4920140;29;20114;-73
2023/10/31 00:53:39;;;;;;;9.38;3.13;;;;;;;;;;4904776;29;20046;-73
2023/10/31 00:56:05;;;;;;;7.57;2.90;;;10.90;99.90;;;;;;4920460;29;20096;-73
2023/10/31 00:58:31;;;;;;;4.95;2.78;;;;;;;;;;4920441;29;20126;-73
2023/10/31 01:00:57;;;;;;;8.93;3.78;;;;;;;;;;4900184;29;20056;-73
2023/10/31 01:03:23;;;;;;;7.28;4.15;;;;;;;;;;4891967;29;20048;-73
2023/10/31 01:05:49;;;;;;;5.80;3.55;;;;;;;;;;4901406;29;20051;-72
2023/10/31 01:08:15;;;;;;;9.65;4.03;;;;;;;;;;4900390;29;20044;-73
2023/10/31 01:10:41;;;;;;;9.00;3.60;;;;;;;;;;4920145;29;20039;-73
2023/10/31 01:13:08;;;;;;;6.50;3.75;;;;;;;;;;4909722;29;20126;-73
2023/10/31 01:15:34;;;;;;;6.40;3.22;;;;;;;;;;4905015;29;20048;-72
2023/10/31 01:18:01;;;;;;;9.63;3.92;;;;;;;;;;4920200;29;20054;-72
2023/10/31 01:20:27;;;;;;;7.18;2.83;;;;;;;;;;4904148;29;20050;-73
2023/10/31 01:22:53;;;;;;;6.03;2.70;;;;;;;;;;4919986;29;20079;-72
2023/10/31 01:25:19;;;;;;;8.38;2.60;;;;;;;;;;4918966;29;20039;-72
2023/10/31 01:27:47;;;;;;;10.70;2.67;;;;;;;;;;4903855;29;20361;-72
2023/10/31 01:30:13;;;;;;;8.18;2.42;;;;;;;;;;4919216;29;20495;-72
2023/10/31 01:32:39;;;;;;;5.30;2.25;;;;;;;;;;4904411;29;20050;-72
2023/10/31 01:35:06;;;;;;;6.38;1.80;;;;;;;;;;4920086;29;20492;-72
2023/10/31 01:37:32;;;;;;;3.17;1.80;;;;;;;;;;4919807;29;20054;-74
2023/10/31 01:39:58;;;;;;;6.53;2.35;;;;;;;;;;4919183;29;20906;-74
2023/10/31 01:42:24;;;;;;;8.68;2.65;;;;;;;;;;4900437;29;20055;-74
2023/10/31 01:44:50;;;;;;;10.88;2.33;;;;;;;;;;4911283;29;20089;-74
2023/10/31 01:47:16;;;;;;;6.85;2.38;;;;;;;;;;4919736;29;20055;-73
2023/10/31 01:49:42;;;;;;;8.45;2.25;;;;;;;;;;4898782;29;20401;-72
2023/10/31 01:52:09;;;;;;;13.93;2.50;;;;;;;;;;4920726;29;20039;-72
2023/10/31 01:54:35;;;;;;;7.00;2.10;;;;;;;;;;4903555;29;20086;-72
2023/10/31 01:57:02;;;;;;;7.60;1.92;;;10.70;99.90;;;;;;4903792;29;20044;-73
2023/10/31 01:59:29;;;;;;;8.30;1.90;;;;;;;;;;4919374;29;20047;-72
2023/10/31 02:01:59;;;;;;;8.48;1.88;;;;;;;;;;4918894;29;20058;-72
2023/10/31 02:04:25;;;;;;;8.85;2.13;;;;;;;;;;4919284;29;20035;-73
2023/10/31 02:06:51;;;;;;;9.23;2.25;;;;;;;;;;4918821;29;20036;-73
2023/10/31 02:09:17;;;;;;;5.55;1.80;;;;;;;;;;4919216;29;20507;-73
2023/10/31 02:11:43;;;;;;;6.35;2.10;;;;;;;;;;4884617;29;20048;-73
2023/10/31 02:14:10;;;;;;;9.68;1.83;;;10.60;99.90;;;;;;4887460;29;20146;-73
2023/10/31 02:16:36;;;;;;;5.90;1.90;;;;;;;;;;4887873;29;20050;-73
2023/10/31 02:19:03;;;;;;;5.32;2.20;;;10.50;99.90;;;;;;4902054;29;20572;-73
2023/10/31 02:21:29;;;;;;;5.70;2.00;;;;;;;;;;4918942;29;20386;-73
2023/10/31 02:24:00;;;;;;;8.85;2.33;;;10.70;99.90;;;;;;4919412;29;20039;-72
2023/10/31 02:26:30;;;;;;;8.82;2.35;;;10.60;99.90;;;;;;4903477;29;20043;-73
2023/10/31 02:28:56;;;;;;;9.85;2.63;;;;;;;;;;4919026;29;20039;-73
2023/10/31 02:31:22;;;;;;;7.65;2.28;;;;;;;;;;4918585;29;20051;-72
2023/10/31 02:33:48;;;;;;;7.10;2.45;;;;;;;;;;4918815;29;20039;-72
2023/10/31 02:36:14;;;;;;;8.90;2.90;;;;;;;;;;4918379;29;20039;-72
2023/10/31 02:38:40;;;;;;;8.43;2.60;;;;;;;;;;4918247;29;20373;-72
2023/10/31 02:41:06;;;;;;;8.13;2.43;;;;;;;;;;4918709;29;20043;-72
2023/10/31 02:43:33;;;;;;;9.05;2.28;;;;;;;;;;4918629;29;20120;-72
2023/10/31 02:45:59;;;;;;;9.75;2.53;;;;;;;;;;4918688;29;20062;-72
2023/10/31 02:48:26;;;;;;;9.38;3.75;;;;;;;;;;4918170;29;20059;-72
2023/10/31 02:50:52;;;;;;;6.97;2.20;;;;;;;;;;4918281;29;20051;-72
2023/10/31 02:53:19;;;;;;;10.27;2.17;;;;;;;;;;4918903;29;20067;-72
2023/10/31 02:55:45;;;;;;;13.80;2.60;;;;;;;;;;4899352;29;20044;-73
2023/10/31 02:58:11;;;;;;;9.63;2.55;;;;;;;;;;4934402;29;20401;-72
2023/10/31 03:00:37;;;;;;;8.20;2.33;;;;;;;;;;4898964;29;20119;-72
2023/10/31 03:03:04;;;;;;;13.27;2.50;;;;;;;;;;4897158;29;20044;-73
2023/10/31 03:05:30;;;;;;;8.25;2.13;;;;;;;;;;4918757;29;20050;-73
2023/10/31 03:07:56;;;;;;;7.72;2.13;;;;;;;;;;4918257;29;20506;-72
2023/10/31 03:10:22;;;;;;;6.03;2.20;;;;;;;;;;4918325;29;20031;-73
2023/10/31 03:12:48;;;;;;;9.13;2.85;;;;;;;;;;4918287;29;20043;-72
2023/10/31 03:15:15;;;;;;;7.78;2.17;;;;;;;;;;4918305;29;20054;-73
2023/10/31 03:17:41;;;;;;;8.73;2.20;;;;;;;;;;4918377;29;20043;-73
2023/10/31 03:20:07;;;;;;;5.45;2.20;;;11.30;99.90;;;;;;4915439;29;20095;-72
2023/10/31 03:22:33;;;;;;;5.90;2.00;;;;;;;;;;4917362;29;20040;-72
2023/10/31 03:24:59;;;;;;;4.45;1.70;;;;;;;;;;4918556;29;20040;-72
2023/10/31 03:27:25;;;;;;;7.45;2.85;;;;;;;;;;4921991;29;20035;-72
2023/10/31 03:29:51;;;;;;;9.95;2.33;;;;;;;;;;4920173;29;20053;-72
2023/10/31 03:32:17;;;;;;;4.53;2.22;;;;;;;;;;4921518;29;20098;-72
2023/10/31 03:34:43;;;;;;;5.90;1.92;;;;;;;;;;4921001;29;20039;-72
2023/10/31 03:37:09;;;;;;;4.68;1.52;;;;;;;;;;4905974;29;20510;-72
2023/10/31 03:39:35;;;;;;;5.60;1.77;;;;;;;;;;4921648;29;20043;-72
2023/10/31 03:42:01;;;;;;;5.30;1.80;;;;;;;;;;4921704;29;20447;-73
2023/10/31 03:44:27;;;;;;;5.35;1.75;;;;;;;;;;4921846;29;20062;-73
2023/10/31 03:46:53;;;;;;;6.97;1.83;;;;;;;;;;4921858;29;20202;-74
2023/10/31 03:49:20;;;;;;;5.13;1.88;;;;;;;;;;4921553;29;20430;-72
2023/10/31 03:51:46;;;;;;;5.90;2.25;;;;;;;;;;4906104;29;20047;-72
2023/10/31 03:54:12;;;;;;;6.18;1.90;;;;;;;;;;4905654;29;20074;-72
2023/10/31 03:56:43;;;;;;;5.80;1.92;;;10.90;99.90;;;;;;4921396;29;20127;-73
2023/10/31 03:59:09;;;;;;;3.85;1.70;;;;;;;;;;4920789;29;20055;-73
2023/10/31 04:01:35;;;;;;;5.50;1.65;;;;;;;;;;4904874;29;20051;-73
2023/10/31 04:04:01;;;;;;;8.65;1.90;;;;;;;;;;4905034;29;20591;-72
2023/10/31 04:06:28;;;;;;;6.10;1.52;;;;;;;;;;4921882;29;20044;-73
2023/10/31 04:08:54;;;;;;;4.72;1.40;;;;;;;;;;4921296;29;20043;-72
2023/10/31 04:11:20;;;;;;;6.35;1.70;;;;;;;;;;4921444;29;20047;-72
2023/10/31 04:13:46;;;;;;;2.97;1.50;;;;;;;;;;4921337;29;20478;-72
2023/10/31 04:16:12;;;;;;;5.72;1.40;;;;;;;;;;4921267;29;20495;-72
2023/10/31 04:18:38;;;;;;;5.03;1.50;;;;;;;;;;4905671;29;20031;-72
2023/10/31 04:21:04;;;;;;;5.85;1.20;;;;;;;;;;4921438;29;20074;-72
2023/10/31 04:23:30;;;;;;;6.00;2.20;;;;;;;;;;4920206;29;20071;-72
2023/10/31 04:25:57;;;;;;;8.52;1.88;;;;;;;;;;4884938;29;20048;-73
2023/10/31 04:28:23;;;;;;;4.78;1.60;;;;;;;;;;4912449;29;20481;-72
2023/10/31 04:30:49;;;;;;;3.35;1.45;;;;;;;;;;4921479;29;20078;-72
2023/10/31 04:33:15;;;;;;;8.30;2.00;;;;;;;;;;4920517;29;20039;-72
2023/10/31 04:35:41;;;;;;;6.05;1.77;;;;;;;;;;4903553;29;20384;-72
2023/10/31 04:38:07;;;;;;;5.72;1.63;;;;;;;;;;4920604;29;20196;-72
2023/10/31 04:40:33;;;;;;;4.55;1.67;;;;;;;;;;4921007;29;20035;-72
2023/10/31 04:42:59;;;;;;;6.10;2.13;;;;;;;;;;4920730;29;20050;-72
2023/10/31 04:45:25;;;;;;;4.65;1.42;;;;;;;;;;4920728;29;20055;-72
2023/10/31 04:47:51;;;;;;;2.33;1.10;;;;;;;;;;4904497;29;20167;-72
2023/10/31 04:50:17;;;;;;;6.55;1.38;;;;;;;;;;4920632;29;20054;-72
2023/10/31 04:52:43;;;;;;;5.97;1.80;;;;;;;;;;4890940;29;20396;-72
2023/10/31 04:55:10;;;;;;;3.13;1.20;;;;;;;;;;4904809;29;20123;-72
2023/10/31 04:57:36;;;;;;;3.38;1.55;;;;;;;;;;4920310;29;20154;-72
2023/10/31 05:00:05;;;;;;;2.60;1.27;;;;;;;;;;4920666;29;20039;-72
2023/10/31 05:02:31;;;;;;;5.32;1.25;;;;;;;;;;4920035;29;20067;-72
2023/10/31 05:04:58;;;;;;;2.72;1.52;;;;;;;;;;4904447;29;20129;-73
2023/10/31 05:07:24;;;;;;;5.70;1.30;;;;;;;;;;4919790;29;20047;-72
2023/10/31 05:09:51;;;;;;;6.70;1.35;;;;;;;;;;4920011;29;20075;-72
2023/10/31 05:12:17;;;;;;;4.00;1.40;;;;;;;;;;4920435;29;20070;-72
2023/10/31 05:14:43;;;;;;;2.15;1.20;;;;;;;;;;4904406;29;20433;-72
2023/10/31 05:17:09;;;;;;;4.05;1.23;;;;;;;;;;4920182;29;20047;-72
2023/10/31 05:19:35;;;;;;;3.58;1.30;;;;;;;;;;4920157;29;20040;-72
2023/10/31 05:22:01;;;;;;;4.80;1.60;;;;;;;;;;4910398;29;20515;-72
2023/10/31 05:24:27;;;;;;;3.78;1.23;;;;;;;;;;4901265;29;20044;-72
2023/10/31 05:26:53;;;;;;;3.90;1.52;;;;;;;;;;4918665;29;20040;-73
2023/10/31 05:29:20;;;;;;;4.45;1.50;;;;;;;;;;4919838;29;20039;-72
2023/10/31 05:31:47;;;;;;;3.97;1.85;;;;;;;;;;4904313;29;20036;-73
2023/10/31 05:34:13;;;;;;;7.18;3.15;;;;;;;;;;4919890;29;20496;-72
2023/10/31 05:36:39;;;;;;;3.50;1.50;;;;;;;;;;4920196;29;20365;-72
2023/10/31 05:39:05;;;;;;;3.10;1.80;;;;;;;;;;4919801;29;20054;-72
2023/10/31 05:41:34;;;;;;;4.90;2.17;;;;;;;;;;4888730;29;20083;-72
2023/10/31 05:44:00;;;;;;;7.82;2.03;;;;;;;;;;4904224;29;20376;-72
2023/10/31 05:46:26;;;;;;;5.32;1.80;;;;;;;;;;4900655;29;20032;-73
2023/10/31 05:48:52;;;;;;;8.43;2.17;;;;;;;;;;4913795;29;20059;-72
2023/10/31 05:51:19;;;;;;;6.18;1.92;;;11.10;99.90;;;;;;4919497;29;20148;-72
2023/10/31 05:53:46;;;;;;;4.03;2.00;;;10.80;99.90;;;;;;4919490;29;20039;-72
2023/10/31 05:56:13;;;;;;;6.88;2.22;;;10.80;99.90;;;;;;4919944;29;20050;-72
2023/10/31 05:58:39;;;;;;;4.30;2.00;;;;;;;;;;4919035;29;20043;-72
2023/10/31 06:01:06;;;;;;;3.80;2.20;;;;;;;;;;4919195;29;20540;-73
2023/10/31 06:03:32;;;;;;;5.93;2.92;;;10.70;99.90;;;;;;4918994;29;20126;-72
2023/10/31 06:05:58;;;;;;;6.00;2.67;;;;;;;;;;4919233;29;20116;-72
2023/10/31 06:08:27;;;;;;;10.18;3.53;;;;;;;;;;4884380;29;20044;-73
2023/10/31 06:10:54;;;;;;;10.82;2.58;;;;;;;;;;4918794;29;20048;-73
2023/10/31 06:13:21;;;;;;;7.13;2.60;;;;;;;;;;4888584;29;20044;-73
2023/10/31 06:15:47;;;;;;;6.72;2.35;;;;;;;;;;4919137;29;20048;-72
2023/10/31 06:18:13;;;;;;;10.95;2.95;;;;;;;;;;4919173;29;20079;-72
2023/10/31 06:20:39;;;;;;;11.48;2.65;;;;;;;;;;4919003;29;20081;-72
2023/10/31 06:23:06;;;;;;;6.88;2.22;;;;;;;;;;4918910;29;20484;-73
2023/10/31 06:25:33;;;;;;;8.68;2.00;;;;;;;;;;4918896;29;20496;-72
2023/10/31 06:27:59;;;;;;;9.20;2.75;;;;;;;;;;4903286;29;20040;-72
2023/10/31 06:30:25;;;;;;;5.70;1.80;;;;;;;;;;4918656;29;20040;-72
2023/10/31 06:32:52;;;;;;;5.93;1.90;;;;;;;;;;4903741;29;20070;-72
2023/10/31 06:35:18;;;;;;;7.22;1.20;;;;;;;;;;4918379;29;20043;-72
2023/10/31 06:37:44;;;;;;;6.30;1.58;;;;;;;;;;4921227;29;20050;-72
2023/10/31 06:40:10;;;;;;;5.68;1.30;;;;;;;;;;4918151;29;20152;-73
2023/10/31 06:42:36;;;;;;;6.47;1.20;;;;;;;;;;4918245;29;20081;-73
2023/10/31 06:45:03;;;;;;;5.28;0.93;;;10.80;99.90;;;;;;4918817;29;20055;-72
2023/10/31 06:47:29;;;;;;;3.78;1.00;;;;;;;;;;4902470;29;20052;-72
2023/10/31 06:49:55;;;;;;;5.88;1.10;;;;;;;;;;4918785;29;20054;-72
2023/10/31 06:52:23;;;;;;;4.15;1.00;;;;;;;;;;4883679;29;20062;-72
2023/10/31 06:54:49;;;;;;;4.15;1.05;;;;;;;;;;4903075;29;20134;-71
2023/10/31 06:57:16;;;;;;;5.57;1.45;;;;;;;;;;4903378;29;20046;-71
2023/10/31 06:59:42;;;;;;;5.68;0.98;;;;;;;;;;4916702;29;20047;-71
2023/10/31 07:02:08;;;;;;;2.78;0.85;;;;;;;;;;4918518;29;20082;-71
2023/10/31 07:04:34;;;;;;;2.40;0.77;;;;;;;;;;4902688;29;20400;-74
2023/10/31 07:07:01;;;;;;;3.30;0.80;;;;;;;;;;4917963;29;20039;-74
2023/10/31 07:09:27;;;;;;;3.03;0.90;;;;;;;;;;4917963;29;20127;-74
2023/10/31 07:11:53;;;;;;;4.22;1.00;;;;;;;;;;4915317;29;20047;-74
2023/10/31 07:14:19;;;;;;;3.65;1.13;;;;;;;;;;4914341;29;20042;-74
2023/10/31 07:16:46;;;;;;;1.13;0.70;;;;;;;;;;4919328;29;20142;-74
2023/10/31 07:19:12;;;;;;;3.03;0.70;;;;;;;;;;4913971;29;20131;-70
2023/10/31 07:21:38;;;;;;;1.83;0.95;;;;;;;;;;4917916;29;20503;-72
2023/10/31 07:24:04;;;;;;;3.47;1.00;;;;;;;;;;4886128;29;20067;-72
2023/10/31 07:26:30;;;;;;;6.63;1.00;;;;;;;;;;4917830;29;20040;-72
2023/10/31 07:28:57;;;;;;;0.90;0.63;;;;;;;;;;4883364;29;20512;-72
2023/10/31 07:31:23;;;;;;;2.28;0.60;;;;;;;;;;4917694;29;20039;-72
2023/10/31 07:33:49;;;;;;;1.70;0.77;;;;;;;;;;4918115;29;20122;-71
2023/10/31 07:36:15;;;;;;;2.67;0.70;;;;;;;;;;4918074;29;20039;-72
2023/10/31 07:38:41;;;;;;;3.05;0.70;;;;;;;;;;4917612;29;20086;-71
2023/10/31 07:41:07;;;;;;;2.40;0.65;;;;;;;;;;4918535;29;20393;-71
2023/10/31 07:43:33;;;;;;;2.97;0.68;;;;;;;;;;4901690;29;20039;-71
2023/10/31 07:46:00;;;;;;;2.08;1.02;;;;;;;;;;4902710;29;20051;-71
2023/10/31 07:48:26;;;;;;;1.98;0.60;;;;;;;;;;4901357;29;20442;-71
2023/10/31 07:50:52;;;;;;;1.20;0.80;;;;;;;;;;4898861;29;20036;-71
2023/10/31 07:53:18;;;;;;;3.05;0.80;;;;;;;;;;4901011;29;20473;-71
2023/10/31 07:55:44;;;;;;;2.72;0.80;;;;;;;;;;4918417;29;20031;-71
2023/10/31 07:58:10;;;;;;;4.07;0.90;;;;;;;;;;4902858;29;20043;-72
2023/10/31 08:00:38;;;;;;;6.88;1.05;;;;;;;;;;4918812;29;20486;-72
2023/10/31 08:03:05;;;;;;;5.18;0.90;;;;;;;;;;4918092;29;20051;-72
2023/10/31 08:05:31;;;;;;;2.90;0.90;;;;;;;;;;4917823;29;20564;-72
2023/10/31 08:07:57;;;;;;;3.67;0.80;;;;;;;;;;4899304;29;20392;-71
2023/10/31 08:10:23;;;;;;;3.05;0.70;;;;;;;;;;4916034;29;20040;-71
2023/10/31 08:12:49;;;;;;;2.70;1.02;;;;;;;;;;4921132;29;20048;-72
2023/10/31 08:15:16;;;;;;;3.58;0.90;;;;;;;;;;4920750;29;20043;-72
2023/10/31 08:17:42;;;;;;;3.80;0.90;;;;;;;;;;4912005;29;20044;-74
2023/10/31 08:20:09;;;;;;;5.63;1.30;;;;;;;;;;4902573;29;20040;-74
2023/10/31 08:22:35;;;;;;;4.20;1.25;;;;;;;;;;4918680;29;20476;-73
2023/10/31 08:25:01;;;;;;;9.90;1.63;;;;;;;;;;4911421;29;20086;-73
2023/10/31 08:27:27;;;;;;;8.80;1.40;;;;;;;;;;4926678;29;20141;-74
2023/10/31 08:29:53;;;;;;;9.45;1.63;;;;;;;;;;4921566;29;20046;-74
2023/10/31 08:32:19;;;;;;;4.00;1.10;;;;;;;;;;4936709;29;20179;-74
2023/10/31 08:34:45;;;;;;;8.85;1.60;;;;;;;;;;4922087;29;20172;-74
2023/10/31 08:37:11;;;;;;;7.80;1.10;;;;;;;;;;4921225;29;20051;-73
2023/10/31 08:39:37;;;;;;;7.88;1.25;;;;;;;;;;4928168;29;20051;-74
2023/10/31 08:42:03;;;;;;;4.00;0.90;;;10.60;99.90;;;;;;4933751;29;20396;-73
2023/10/31 08:44:29;;;;;;;8.55;1.30;;;;;;;;;;4927976;29;20047;-74
2023/10/31 08:46:55;;;;;;;12.13;1.10;;;;;;;;;;4895770;29;20050;-74
2023/10/31 08:49:22;;;;;;;8.15;1.27;;;;;;;;;;4929462;29;20123;-73
2023/10/31 08:51:48;;;;;;;6.40;1.10;;;;;;;;;;4920636;29;20046;-73
2023/10/31 08:54:14;;;;;;;3.85;1.17;;;;;;;;;;4924884;29;20397;-73
2023/10/31 08:56:40;;;;;;;5.88;0.98;;;;;;;;;;4927384;29;20043;-73
2023/10/31 08:59:06;;;;;;;7.43;1.17;;;;;;;;;;4930441;29;20043;-73
2023/10/31 09:01:33;;;;;;;5.00;1.00;;;;;;;;;;4925308;29;20454;-73
2023/10/31 09:03:59;;;;;;;6.15;1.10;;;;;;;;;;4920754;29;20046;-73
2023/10/31 09:06:26;;;;;;;5.85;0.90;;;;;;;;;;4925843;29;20044;-72
2023/10/31 09:08:52;;;;;;;4.75;1.00;;;;;;;;;;4926933;29;20050;-73
2023/10/31 09:11:18;;;;;;;4.72;0.98;;;;;;;;;;4926035;29;20050;-72
2023/10/31 09:13:44;;;;;;;5.50;1.13;;;;;;;;;;4904924;29;20043;-72
2023/10/31 09:16:10;;;;;;;4.88;1.15;;;;;;;;;;4924229;29;20043;-73
2023/10/31 09:18:36;;;;;;;8.65;1.77;;;;;;;;;;4904613;29;20546;-73
2023/10/31 09:21:02;;;;;;;7.00;1.00;;;;;;;;;;4920156;29;20082;-74
2023/10/31 09:23:29;;;;;;;7.28;1.40;;;;;;;;;;4904001;29;20400;-72
2023/10/31 09:25:56;;;;;;;11.85;1.15;;;;;;;;;;4922262;29;20048;-72
2023/10/31 09:28:22;;;;;;;10.70;1.50;;;;;;;;;;4907084;29;20063;-72
2023/10/31 09:30:50;;;;;;;7.80;1.38;;;;;;;;;;4919059;29;20039;-72
2023/10/31 09:33:16;;;;;;;3.40;1.13;;;;;;;;;;4918480;29;20465;-73
2023/10/31 09:35:42;;;;;;;5.82;1.17;;;;;;;;;;4907073;29;20086;-73
2023/10/31 09:38:09;;;;;;;7.55;1.00;;;;;;;;;;4904464;29;20135;-72
2023/10/31 09:40:38;;;;;;;3.95;1.20;;;11.60;99.90;;;;;;4919808;29;20049;-73
2023/10/31 09:43:04;;;;;;;8.48;1.10;;;;;;;;;;4917308;29;21312;-73
2023/10/31 09:45:30;;;;;;;15.55;1.67;;;;;;;;;;4910379;29;20035;-73
2023/10/31 09:47:57;;;;;;;6.18;1.50;;;;;;;;;;4918406;29;20182;-72
2023/10/31 09:50:23;;;;;;;5.32;1.33;;;;;;;;;;4916128;29;20094;-73
2023/10/31 09:52:49;;;;;;;7.50;1.00;;;;;;;;;;4926978;29;20048;-74
2023/10/31 09:55:16;;;;;;;6.63;1.10;;;;;;;;;;4923782;29;20130;-73
2023/10/31 09:57:42;;;;;;;5.75;1.42;;;;;;;;;;4924158;29;20492;-74
2023/10/31 10:00:08;;;;;;;4.85;1.38;;;;;;;;;;4914786;29;20400;-73
2023/10/31 10:02:34;;;;;;;6.72;1.00;;;;;;;;;;4893891;29;20040;-73
2023/10/31 10:05:00;;;;;;;7.70;1.48;;;;;;;;;;4885537;29;20048;-73
2023/10/31 10:07:26;;;;;;;2.58;1.27;;;;;;;;;;4900713;29;20051;-73
2023/10/31 10:09:52;;;;;;;6.35;1.33;;;;;;;;;;4900829;29;20048;-73
2023/10/31 10:12:19;;;;;;;6.97;0.95;;;;;;;;;;4885014;29;20043;-73
2023/10/31 10:14:46;;;;;;;4.20;0.88;;;;;;;;;;4900604;29;20047;-73
2023/10/31 10:17:21;;;;;;;3.38;1.27;;;11.70;99.90;;;;;;4885165;29;20412;-72
2023/10/31 10:19:48;;;;;;;6.68;1.10;;;;;;;;;;4900752;29;20131;-72
2023/10/31 10:22:14;;;;;;;7.28;1.00;;;;;;;;;;4938145;29;20053;-72
2023/10/31 10:24:41;;;;;;;2.97;1.00;;;;;;;;;;4929546;29;20054;-72
2023/10/31 10:27:08;;;;;;;4.80;0.93;;;11.60;99.90;;;;;;4931051;29;20043;-72
2023/10/31 10:29:35;;;;;;;2.88;0.80;;;;;;;;;;4934913;29;20043;-72
2023/10/31 10:32:01;;;;;;;5.55;1.00;;;;;;;;;;4934876;29;20504;-72
2023/10/31 10:34:27;;;;;;;8.07;2.92;;;;;;;;;;4919513;29;20043;-72
2023/10/31 10:36:54;;;;;;;5.65;1.10;;;;;;;;;;4919158;29;20062;-72
2023/10/31 10:39:22;;;;;;;6.20;1.00;;;11.70;99.90;;;;;;4934902;29;20179;-72
2023/10/31 10:41:55;;;;;;;7.57;1.40;;;;;;;;;;4934952;29;20055;-72
2023/10/31 10:44:27;;;;;;;4.82;1.02;;;;;;;;;;4934464;29;20509;-73
2023/10/31 10:46:55;;;;;;;1.92;0.88;;;;;;;;;;4935797;29;20079;-72
2023/10/31 10:49:23;;;;;;;8.23;1.33;;;;;;;;;;4936105;29;20047;-72
2023/10/31 10:51:58;;;;;;;5.80;1.65;;;11.60;99.90;;;;;;4936510;29;20190;-73
2023/10/31 10:54:44;;;;;;;3.30;1.20;;;;;;;;;;4937802;29;20054;-73
2023/10/31 10:57:19;;;;;;;5.68;1.00;;;;;;;;;;4955079;29;20039;-73
2023/10/31 10:59:50;;;;;;;3.65;1.02;;;;;;;;;;4920035;29;20039;-73
2023/10/31 11:02:18;;;;;;;2.85;1.02;;;11.50;99.90;;;;;;4912318;29;20043;-73
2023/10/31 11:04:44;;;;;;;5.13;1.13;;;;;;;;;;4918622;29;20514;-73
2023/10/31 11:07:11;;;;;;;6.20;1.73;;;;;;;;;;4912814;29;20044;-73
2023/10/31 11:09:38;;;;;;;3.15;0.90;;;;;;;;;;4918620;29;20047;-73
2023/10/31 11:12:04;;;;;;;5.93;1.10;;;;;;;;;;4926744;29;20050;-73
2023/10/31 11:14:31;;;;;;;5.15;1.00;;;11.30;99.90;;;;;;4918717;29;20048;-73
2023/10/31 11:17:03;;;;;;;3.88;1.15;;;11.40;99.90;;;;;;4902727;29;20051;-73
2023/10/31 11:19:30;;;;;;;2.95;0.90;;;11.40;99.90;;;;;;4902644;29;20056;-73
2023/10/31 11:22:00;;;;;;;4.00;0.93;;;;;;;;;;4918351;29;20286;-74
2023/10/31 11:24:28;;;;;;;4.75;1.13;;;11.30;99.90;;;;;;4918598;29;20047;-73
2023/10/31 11:26:58;;;;;;;6.10;1.27;;;;;;;;;;4902842;29;20043;-73
2023/10/31 11:29:25;;;;;;;5.05;1.27;;;;;;;;;;4918556;29;20040;-73
2023/10/31 11:31:52;;;;;;;3.92;1.15;;;;;;;;;;4918407;29;20384;-73
2023/10/31 11:34:18;;;;;;;6.78;1.27;;;;;;;;;;4902787;29;20050;-74
2023/10/31 11:36:46;;;;;;;5.25;1.23;;;;;;;;;;4910951;29;20567;-74
2023/10/31 11:39:13;;;;;;;5.00;1.20;;;;;;;;;;4886407;29;20044;-74
2023/10/31 11:41:39;;;;;;;8.15;1.58;;;;;;;;;;4899294;29;20051;-73
2023/10/31 11:44:05;;;;;;;5.38;1.20;;;;;;;;;;4899650;29;20040;-73
2023/10/31 11:46:32;;;;;;;5.30;1.30;;;;;;;;;;4902482;29;20051;-73
2023/10/31 11:49:00;;;;;;;4.05;1.20;;;;;;;;;;4909551;29;20059;-73
2023/10/31 11:51:26;;;;;;;6.07;1.25;;;;;;;;;;4925915;29;20040;-73
2023/10/31 11:53:52;;;;;;;4.93;1.50;;;;;;;;;;4923916;29;20047;-73
2023/10/31 11:56:19;;;;;;;4.25;1.00;;;;;;;;;;4906299;29;20159;-73
2023/10/31 11:58:55;;;;;;;5.65;1.55;;;;;;;;;;4922009;29;20040;-73
2023/10/31 12:01:21;;;;;;;7.68;1.40;;;;;;;;;;4912849;29;20046;-73
2023/10/31 12:03:47;;;;;;;6.63;1.48;;;;;;;;;;4919914;29;20095;-72
2023/10/31 12:06:14;;;;;;;4.32;1.40;;;;;;;;;;4903850;29;20229;-72
2023/10/31 12:08:42;;;;;;;3.33;1.05;;;11.70;99.90;;;;;;4904705;29;20856;-72
2023/10/31 12:11:08;;;;;;;3.20;1.02;;;;;;;;;;4919707;29;20054;-72
2023/10/31 12:13:35;;;;;;;2.08;0.82;;;;;;;;;;4923752;29;20044;-72
2023/10/31 12:16:01;;;;;;;3.05;0.90;;;;;;;;;;4919307;29;20111;-72
2023/10/31 12:18:28;;;;;;;4.10;1.25;;;;;;;;;;4909858;29;20154;-72
2023/10/31 12:20:54;;;;;;;7.90;1.08;;;;;;;;;;4902935;29;20048;-73
2023/10/31 12:23:20;;;;;;;5.88;1.00;;;;;;;;;;4920028;29;20130;-73
2023/10/31 12:25:56;;;;;;;7.38;1.27;;;;;;;;;;4905574;29;20043;-73
2023/10/31 12:28:23;;;;;;;4.35;1.02;;;12.00;99.90;;;;;;4921237;29;20082;-73
2023/10/31 12:30:50;;;;;;;5.47;1.73;;;;;;;;;;4930882;29;20067;-73
2023/10/31 12:33:16;;;;;;;4.05;1.33;;;11.50;99.90;;;;;;4937848;29;20121;-72
2023/10/31 12:35:43;;;;;;;8.02;1.17;;;;;;;;;;4922301;29;20479;-73
2023/10/31 12:38:13;;;;;;;5.10;1.10;;;11.80;99.90;;;;;;4920799;29;20035;-72
2023/10/31 12:40:40;;;;;;;4.13;1.30;;;;;;;;;;4921020;29;20488;-72
2023/10/31 12:43:07;;;;;;;6.65;2.35;;;;;;;;;;4904836;29;20055;-72
2023/10/31 12:45:33;;;;;;;4.28;1.05;;;;;;;;;;4921269;29;20066;-72
2023/10/31 12:48:02;;;;;;;2.78;1.05;;;;;;;;;;4904948;29;20056;-73
2023/10/31 12:50:28;;;;;;;6.32;1.10;;;;;;;;;;4920745;29;20109;-72
2023/10/31 12:52:57;;;;;;;2.90;1.08;;;;;;;;;;4920535;29;20047;-69
2023/10/31 12:55:30;;;;;;;4.90;1.20;;;;;;;;;;4931675;29;20055;-72
2023/10/31 12:57:57;;;;;;;4.47;1.10;;;;;;;;;;4919346;29;20044;-72
2023/10/31 13:00:30;;;;;;;4.25;1.00;;;;;;;;;;4920768;29;20061;-72
2023/10/31 13:03:00;;;;;;;7.85;2.28;;;;;;;;;;4904795;29;20063;-73
2023/10/31 13:05:27;;;;;;;2.97;0.93;;;12.60;99.90;;;;;;4917422;29;20122;-72
2023/10/31 13:07:55;;;;;;;4.47;1.23;;;;;;;;;;4923403;29;20050;-72
2023/10/31 13:10:21;;;;;;;3.65;1.15;;;;;;;;;;4920683;29;20133;-72
2023/10/31 13:12:47;;;;;;;6.00;1.58;;;;;;;;;;4929233;29;20399;-72
2023/10/31 13:15:14;;;;;;;7.22;0.93;;;;;;;;;;4903517;29;20044;-72
2023/10/31 13:17:44;;;;;;;4.88;1.08;;;;;;;;;;4899166;29;20050;-72
2023/10/31 13:20:10;;;;;;;3.45;1.00;;;;;;;;;;4918915;29;20065;-72
2023/10/31 13:22:37;;;;;;;6.05;1.00;;;;;;;;;;4901390;29;20068;-72
2023/10/31 13:25:04;;;;;;;3.60;0.80;;;;;;;;;;4885934;29;20040;-72
2023/10/31 13:27:35;;;;;;;4.47;0.98;;;12.30;99.90;;;;;;4886054;29;20044;-72
2023/10/31 13:30:02;;;;;;;4.38;1.00;;;;;;;;;;4908322;29;20555;-73
2023/10/31 13:32:28;;;;;;;3.17;1.20;;;;;;;;;;4920267;29;20051;-73
2023/10/31 13:34:54;;;;;;;1.77;0.80;;;;;;;;;;4920216;29;20559;-72
2023/10/31 13:37:20;;;;;;;2.60;0.68;;;;;;;;;;4904565;29;20054;-73
2023/10/31 13:39:46;;;;;;;2.42;0.73;;;;;;;;;;4920378;29;20055;-73
2023/10/31 13:42:14;;;;;;;3.45;0.80;;;;;;;;;;4920101;29;20079;-72
2023/10/31 13:44:40;;;;;;;1.42;0.77;;;;;;;;;;4920311;29;20440;-73
2023/10/31 13:47:06;;;;;;;3.03;1.23;;;;;;;;;;4906433;29;20499;-72
2023/10/31 13:49:33;;;;;;;2.60;0.80;;;;;;;;;;4921041;29;20396;-73
2023/10/31 13:51:59;;;;;;;2.17;0.65;;;;;;;;;;4904287;29;20044;-73
2023/10/31 13:54:25;;;;;;;2.80;0.80;;;;;;;;;;4919991;29;20048;-73
2023/10/31 13:56:51;;;;;;;3.50;1.20;;;;;;;;;;4919795;29;20043;-73
2023/10/31 13:59:18;;;;;;;1.90;0.70;;;;;;;;;;4904073;29;20047;-73
2023/10/31 14:01:45;;;;;;;3.60;1.02;;;;;;;;;;4904186;29;20044;-73
2023/10/31 14:04:14;;;;;;;5.05;0.90;;;;;;;;;;4904309;29;20062;-73
2023/10/31 14:06:41;;;;;;;3.90;1.65;;;;;;;;;;4928308;29;20113;-73
2023/10/31 14:09:08;;;;;;;4.50;0.80;;;;;;;;;;4893754;29;20040;-73
2023/10/31 14:11:34;;;;;;;1.38;0.65;;;;;;;;;;4919743;29;20042;-73
2023/10/31 14:14:06;;;;;;;4.10;1.15;;;;;;;;;;4901291;29;20450;-73
2023/10/31 14:16:35;;;;;;;1.02;0.60;;;;;;;;;;4919951;29;20040;-73
2023/10/31 14:19:04;;;;;;;1.13;0.63;;;;;;;;;;4919516;29;20039;-73
2023/10/31 14:21:30;;;;;;;2.47;1.00;;;;;;;;;;4904213;29;20488;-73
2023/10/31 14:23:56;;;;;;;5.65;0.90;;;;;;;;;;4918955;29;20489;-73
2023/10/31 14:26:26;;;;;;;2.30;0.90;;;;;;;;;;4903532;29;20036;-73